createdAt,value
2023-03-15T00:03:16.334Z,6.65
2023-03-15T00:06:41.413Z,6.63
2023-03-15T00:10:06.501Z,6.63
2023-03-15T00:13:31.597Z,6.66
2023-03-15T00:16:56.710Z,6.65
2023-03-15T00:20:21.815Z,6.64
2023-03-15T00:23:46.941Z,6.66
2023-03-15T00:27:12.012Z,6.64
2023-03-15T00:30:37.137Z,6.61
2023-03-15T00:34:02.239Z,6.56
2023-03-15T00:37:27.336Z,6.48
2023-03-15T00:40:52.466Z,6.43
2023-03-15T00:44:17.547Z,6.39
2023-03-15T00:47:42.655Z,6.36
2023-03-15T00:51:07.765Z,6.34
2023-03-15T00:54:32.873Z,6.35
2023-03-15T00:57:57.995Z,6.34
2023-03-15T01:01:23.166Z,6.31
2023-03-15T01:04:48.194Z,6.3
2023-03-15T01:08:13.291Z,6.26
2023-03-15T01:11:38.403Z,6.19
2023-03-15T01:15:03.545Z,6.17
2023-03-15T01:18:28.624Z,6.21
2023-03-15T01:21:53.739Z,6.25
2023-03-15T01:25:18.838Z,6.24
2023-03-15T01:28:43.949Z,6.2
2023-03-15T01:32:09.115Z,6.13
2023-03-15T01:35:34.189Z,6.03
2023-03-15T01:38:59.280Z,5.96
2023-03-15T01:42:24.388Z,5.92
2023-03-15T01:45:49.471Z,5.93
2023-03-15T01:49:14.592Z,5.95
2023-03-15T01:52:39.680Z,5.95
2023-03-15T01:56:04.782Z,5.96
2023-03-15T01:59:29.889Z,5.88
2023-03-15T02:02:54.985Z,5.82
2023-03-15T02:06:20.119Z,5.79
2023-03-15T02:09:45.212Z,5.85
2023-03-15T02:13:10.307Z,5.85
2023-03-15T02:16:35.441Z,5.85
2023-03-15T02:20:00.537Z,5.87
2023-03-15T02:23:25.679Z,5.87
2023-03-15T02:26:50.743Z,5.83
2023-03-15T02:30:15.834Z,5.82
2023-03-15T02:33:40.947Z,5.81
2023-03-15T02:37:06.032Z,5.78
2023-03-15T02:40:31.196Z,5.78
2023-03-15T02:43:56.265Z,5.76
2023-03-15T02:47:21.355Z,5.76
2023-03-15T02:50:46.451Z,5.77
2023-03-15T02:54:11.585Z,5.74
2023-03-15T02:57:36.703Z,5.74
2023-03-15T03:01:01.907Z,5.69
2023-03-15T03:04:26.896Z,5.62
2023-03-15T03:07:51.982Z,5.57
2023-03-15T03:11:18.044Z,5.51
2023-03-15T03:14:43.219Z,5.42
2023-03-15T03:18:08.236Z,5.35
2023-03-15T03:21:33.339Z,5.3
2023-03-15T03:24:58.458Z,5.28
2023-03-15T03:28:23.557Z,5.25
2023-03-15T03:31:48.683Z,5.21
2023-03-15T03:35:15.970Z,5.16
2023-03-15T03:38:38.894Z,5.1
2023-03-15T03:42:03.990Z,4.98
2023-03-15T03:45:29.084Z,4.91
2023-03-15T03:48:54.240Z,4.89
2023-03-15T03:52:19.260Z,4.84
2023-03-15T03:55:44.374Z,4.8
2023-03-15T03:59:09.469Z,4.81
2023-03-15T04:02:34.655Z,4.82
2023-03-15T04:05:59.723Z,4.86
2023-03-15T04:09:24.799Z,4.82
2023-03-15T04:12:49.898Z,4.83
2023-03-15T04:16:15.044Z,4.87
2023-03-15T04:19:40.124Z,4.87
2023-03-15T04:23:05.271Z,4.85
2023-03-15T04:26:30.346Z,4.83
2023-03-15T04:29:55.444Z,4.8
2023-03-15T04:33:20.598Z,4.77
2023-03-15T04:36:45.804Z,4.75
2023-03-15T04:40:11.008Z,4.72
2023-03-15T04:43:36.060Z,4.69
2023-03-15T04:47:01.219Z,4.66
2023-03-15T04:50:26.262Z,4.64
2023-03-15T04:53:51.385Z,4.6
2023-03-15T04:57:16.506Z,4.57
2023-03-15T05:00:41.719Z,4.56
2023-03-15T05:04:06.756Z,4.55
2023-03-15T05:07:31.864Z,4.5
2023-03-15T05:10:56.989Z,4.48
2023-03-15T05:14:22.141Z,4.46
2023-03-15T05:17:47.244Z,4.45
2023-03-15T05:21:12.386Z,4.43
2023-03-15T05:24:38.062Z,4.39
2023-03-15T05:28:03.179Z,4.33
2023-03-15T05:31:28.429Z,4.25
2023-03-15T05:34:53.426Z,4.24
2023-03-15T05:38:18.538Z,4.23
2023-03-15T05:41:43.657Z,4.25
2023-03-15T05:45:08.766Z,4.3
2023-03-15T05:48:33.967Z,4.38
2023-03-15T05:51:59.116Z,4.44
2023-03-15T05:55:24.268Z,4.43
2023-03-15T05:58:49.468Z,4.45
2023-03-15T06:02:14.624Z,4.49
2023-03-15T06:05:39.848Z,4.51
2023-03-15T06:09:04.953Z,4.47
2023-03-15T06:12:30.071Z,4.5
2023-03-15T06:15:55.185Z,4.58
2023-03-15T06:19:20.297Z,4.7
2023-03-15T06:22:45.411Z,4.77
2023-03-15T06:26:10.531Z,4.78
2023-03-15T06:29:35.647Z,4.75
2023-03-15T06:33:00.829Z,4.76
2023-03-15T06:36:25.834Z,4.78
2023-03-15T06:39:50.967Z,4.76
2023-03-15T06:43:16.044Z,4.79
2023-03-15T06:46:41.162Z,4.81
2023-03-15T06:50:06.269Z,4.81
2023-03-15T06:53:31.375Z,4.79
2023-03-15T06:56:56.537Z,4.76
2023-03-15T07:00:21.668Z,4.8
2023-03-15T07:03:46.791Z,4.78
2023-03-15T07:07:11.905Z,4.7
2023-03-15T07:10:37.062Z,4.62
2023-03-15T07:14:02.209Z,4.59
2023-03-15T07:17:27.266Z,4.62
2023-03-15T07:20:52.368Z,4.56
2023-03-15T07:24:17.485Z,4.56
2023-03-15T07:27:42.617Z,4.59
2023-03-15T07:31:07.802Z,4.64
2023-03-15T07:34:32.895Z,4.63
2023-03-15T07:37:58.009Z,4.69
2023-03-15T07:41:23.129Z,4.73
2023-03-15T07:44:48.298Z,4.75
2023-03-15T07:48:13.405Z,4.75
2023-03-15T07:51:38.522Z,4.75
2023-03-15T07:55:03.661Z,4.79
2023-03-15T07:58:28.764Z,4.82
2023-03-15T08:01:53.970Z,4.78
2023-03-15T08:05:19.061Z,4.85
2023-03-15T08:08:44.174Z,4.94
2023-03-15T08:12:09.301Z,4.94
2023-03-15T08:15:34.408Z,4.83
2023-03-15T08:18:59.538Z,4.75
2023-03-15T08:22:24.693Z,4.8
2023-03-15T08:25:49.802Z,4.86
2023-03-15T08:29:14.913Z,4.87
2023-03-15T08:32:40.088Z,4.88
2023-03-15T08:36:05.175Z,4.93
2023-03-15T08:39:30.298Z,4.97
2023-03-15T08:42:55.362Z,5.08
2023-03-15T08:46:20.486Z,5.26
2023-03-15T08:49:45.571Z,5.36
2023-03-15T08:53:10.667Z,5.41
2023-03-15T08:56:35.816Z,5.54
2023-03-15T09:00:00.896Z,5.67
2023-03-15T09:03:26.005Z,5.81
2023-03-15T09:06:51.112Z,5.96
2023-03-15T09:10:16.216Z,6.09
2023-03-15T09:13:41.375Z,6.22
2023-03-15T09:17:06.649Z,6.3
2023-03-15T09:20:31.583Z,6.36
2023-03-15T09:23:56.704Z,6.29
2023-03-15T09:27:21.809Z,6.18
2023-03-15T09:30:47.077Z,6.07
2023-03-15T09:34:12.056Z,5.95
2023-03-15T09:37:37.163Z,5.91
2023-03-15T09:41:02.263Z,5.96
2023-03-15T09:44:27.408Z,6.07
2023-03-15T09:47:52.629Z,6.19
2023-03-15T09:51:17.725Z,6.28
2023-03-15T09:54:42.856Z,6.42
2023-03-15T09:58:07.955Z,6.59
2023-03-15T10:01:33.156Z,6.72
2023-03-15T10:04:58.197Z,6.68
2023-03-15T10:08:23.286Z,6.63
2023-03-15T10:11:48.409Z,6.49
2023-03-15T10:15:13.533Z,6.35
2023-03-15T10:18:38.667Z,6.25
2023-03-15T10:22:03.863Z,6.14
2023-03-15T10:25:28.979Z,6.05
2023-03-15T10:28:54.083Z,5.97
2023-03-15T10:32:19.210Z,6.01
2023-03-15T10:35:44.372Z,6.19
2023-03-15T10:39:09.514Z,6.45
2023-03-15T10:42:34.597Z,6.75
2023-03-15T10:45:59.739Z,6.95
2023-03-15T10:49:24.877Z,7.07
2023-03-15T10:52:51.473Z,7.18
2023-03-15T10:56:15.144Z,7.31
2023-03-15T10:59:40.249Z,7.28
2023-03-15T11:03:05.407Z,7.19
2023-03-15T11:06:30.460Z,7.14
2023-03-15T11:09:55.591Z,7.15
2023-03-15T11:13:20.778Z,7.14
2023-03-15T11:16:46.310Z,7.18
2023-03-15T11:20:11.458Z,7.18
2023-03-15T11:23:36.579Z,7.18
2023-03-15T11:27:01.790Z,7.12
2023-03-15T11:30:26.816Z,7.03
2023-03-15T11:33:51.894Z,6.92
2023-03-15T11:37:17.002Z,6.81
2023-03-15T11:40:42.114Z,6.8
2023-03-15T11:44:07.240Z,6.98
2023-03-15T11:47:32.450Z,7.24
2023-03-15T11:50:57.468Z,7.48
2023-03-15T11:54:22.594Z,7.65
2023-03-15T11:57:51.995Z,7.55
2023-03-15T12:01:17.123Z,7.58
2023-03-15T12:04:42.386Z,7.72
2023-03-15T12:08:07.333Z,7.93
2023-03-15T12:11:32.464Z,8.02
2023-03-15T12:14:57.583Z,7.98
2023-03-15T12:18:22.697Z,7.91
2023-03-15T12:21:47.847Z,8.06
2023-03-15T12:25:12.940Z,8.29
2023-03-15T12:28:38.065Z,8.44
2023-03-15T12:32:03.186Z,8.38
2023-03-15T12:35:28.364Z,8.28
2023-03-15T12:38:53.524Z,8.24
2023-03-15T12:42:18.625Z,8.29
2023-03-15T12:45:43.895Z,8.18
2023-03-15T12:49:09.003Z,8.09
2023-03-15T12:52:34.149Z,7.98
2023-03-15T12:56:07.882Z,7.92
2023-03-15T12:59:24.373Z,7.94
2023-03-15T13:02:49.554Z,7.83
2023-03-15T13:06:14.640Z,7.9
2023-03-15T13:09:39.744Z,7.93
2023-03-15T13:13:04.907Z,8
2023-03-15T13:16:30.059Z,8.06
2023-03-15T13:19:55.122Z,8.09
2023-03-15T13:23:20.255Z,8.04
2023-03-15T13:26:45.351Z,7.89
2023-03-15T13:30:10.526Z,7.56
2023-03-15T13:33:35.618Z,7.21
2023-03-15T13:37:00.729Z,6.96
2023-03-15T13:40:25.850Z,6.77
2023-03-15T13:43:50.963Z,6.64
2023-03-15T13:47:16.097Z,6.54
2023-03-15T13:50:41.198Z,6.4
2023-03-15T13:54:06.334Z,6.27
2023-03-15T13:57:31.465Z,6.34
2023-03-15T14:00:56.551Z,6.53
2023-03-15T14:04:21.769Z,6.6
2023-03-15T14:07:46.903Z,6.52
2023-03-15T14:11:12.051Z,6.38
2023-03-15T14:14:37.171Z,6.28
2023-03-15T14:18:02.273Z,6.15
2023-03-15T14:21:27.424Z,5.99
2023-03-15T14:24:52.533Z,5.72
2023-03-15T14:28:17.638Z,5.46
2023-03-15T14:31:42.781Z,5.24
2023-03-15T14:35:08.018Z,5.1
2023-03-15T14:38:33.109Z,5.03
2023-03-15T14:41:58.435Z,5.16
2023-03-15T14:45:23.780Z,5.31
2023-03-15T14:48:49.127Z,5.34
2023-03-15T14:52:14.278Z,5.5
2023-03-15T14:55:39.455Z,5.56
2023-03-15T14:59:04.570Z,5.48
2023-03-15T15:02:29.777Z,5.41
2023-03-15T15:05:54.840Z,5.44
2023-03-15T15:39:54.527Z,3.98
2023-03-15T15:43:19.622Z,4.96
2023-03-15T15:46:44.736Z,5.16
2023-03-15T15:50:09.855Z,5.36
2023-03-15T15:53:34.957Z,5.52
2023-03-15T15:57:00.107Z,5.63
2023-03-15T16:00:25.202Z,5.73
2023-03-15T16:03:50.314Z,5.8
2023-03-15T16:07:15.407Z,5.87
2023-03-15T16:10:40.534Z,5.89
2023-03-15T16:14:05.695Z,5.92
2023-03-15T16:17:30.766Z,5.93
2023-03-15T16:20:55.904Z,5.91
2023-03-15T16:24:21.021Z,5.91
2023-03-15T16:27:46.147Z,5.95
2023-03-15T16:31:11.357Z,5.96
